LPFL/FLW METAR and TAF weather

Enter ICAO airport designator
Station Type Date Time Source
LPFL METAR 2020/11/28 18:30 UTC NOAA

LPFL 281830Z 36025KT 9999 SCT028 SCT038 13/08 Q1029


Station Type Date Time Source
LPFL Decoded METAR 2020/11/28 18:30 UTC NOAA

Flores Acores , Portugal (LPFL) 39-27N 031-08W 29M
Nov 28, 2020 - 01:30 PM EST / 2020.11.28 1830 UTC
Wind: from the N (360 degrees) at 29 MPH (25 KT):0
Visibility: greater than 7 mile(s):0
Sky conditions: partly cloudy
Temperature: 55 F (13 C)
Dew Point: 46 F (8 C)
Relative Humidity: 71%
Pressure (altimeter): 30.39 in. Hg (1029 hPa)
ob: LPFL 281830Z 36025KT 9999 SCT028 SCT038 13/08 Q1029
cycle: 18

Station Type Date Time Source
LPFL TAF UTC NOAA

Error!

Example: see airport list